Time;durP1;ratioP1;P1;durP2;ratioP2;P2;SDS_P1;SDS_P2;PMS_P1;PMS_P2;Temp;Humidity;BMP_temperature;BMP_pressure;BME280_temperature;BME280_humidity;BME280_pressure;Samples;Min_cycle;Max_cycle;Signal;HPM_P1;HPM_P2
2024/03/04 00:00:11;;;;;;;;;;;10.50;99.90;;;10.92;66.37;99363.88;4924421;29;19974;-84
2024/03/04 00:02:39;;;;;;;;;;;10.50;99.90;;;10.89;66.51;99359.03;4938887;29;19931;-84
2024/03/04 00:05:08;;;;;;;;;;;10.50;99.90;;;10.88;66.88;99365.41;4959241;29;19927;-84
2024/03/04 00:07:35;;;;;;;;;;;10.50;99.90;;;10.83;66.73;99380.28;4942435;29;20021;-83
2024/03/04 00:10:02;;;;;;;;;;;10.40;99.90;;;10.83;67.06;99382.94;4942614;29;20414;-84
2024/03/04 00:12:31;;;;;;;;;;;10.40;99.90;;;10.86;67.22;99383.50;4942443;29;19926;-84
2024/03/04 00:15:00;;;;;;;;;;;10.40;99.90;;;10.86;67.20;99380.84;4959538;28;19927;-83
2024/03/04 00:17:29;;;;;;;;;;;10.40;99.90;;;10.86;67.12;99386.19;4943038;29;19978;-83
2024/03/04 00:19:58;;;;;;;;;;;10.40;99.90;;;10.82;67.32;99385.84;4960235;28;19932;-84
2024/03/04 00:22:25;;;;;;;;;;;10.40;99.90;;;10.82;67.06;99401.84;4942813;29;19927;-84
2024/03/04 00:24:52;;;;;;;;;;;10.40;99.90;;;10.77;67.16;99394.56;4941938;29;20303;-84
2024/03/04 00:27:20;;;;;;;;;;;10.30;99.90;;;10.77;67.52;99405.22;4942650;29;20387;-84
2024/03/04 00:29:47;;;;;;;;;;;10.40;99.90;;;10.79;67.63;99411.16;4974410;28;20372;-83
2024/03/04 00:32:16;;;;;;;;;;;10.30;99.90;;;10.78;67.69;99406.88;4926961;29;19981;-84
2024/03/04 00:34:43;;;;;;;;;;;10.30;99.90;;;10.76;68.16;99414.28;4927653;29;19927;-84
2024/03/04 00:37:11;;;;;;;;;;;10.30;99.90;;;10.75;68.51;99417.19;4942604;29;19946;-84
2024/03/04 00:39:41;;;;;;;;;;;10.30;99.90;;;10.75;68.50;99420.66;4959952;29;19934;-84
2024/03/04 00:42:08;;;;;;;;;;;10.30;99.90;;;10.73;68.95;99421.94;4944129;29;20013;-84
2024/03/04 00:44:36;;;;;;;;;;;10.30;99.90;;;10.76;68.83;99430.28;4926458;29;19932;-84
2024/03/04 00:47:03;;;;;;;;;;;10.30;99.90;;;10.78;68.80;99433.53;4959278;29;19926;-84
2024/03/04 00:49:31;;;;;;;;;;;10.30;99.90;;;10.72;69.56;99431.00;4910257;29;19926;-84
2024/03/04 00:51:59;;;;;;;;;;;10.30;99.90;;;10.64;70.03;99437.53;4942123;29;20332;-84
2024/03/04 00:54:26;;;;;;;;;;;10.30;99.90;;;10.63;70.02;99437.75;4926517;29;20026;-84
2024/03/04 00:56:55;;;;;;;;;;;10.30;99.90;;;10.68;69.90;99438.66;4959477;28;19926;-83
2024/03/04 00:59:24;;;;;;;;;;;10.30;99.90;;;10.71;69.91;99435.50;4959598;28;19926;-84
2024/03/04 01:01:51;;;;;;;;;;;10.30;99.90;;;10.70;70.05;99439.25;4959068;28;19931;-83
2024/03/04 01:04:19;;;;;;;;;;;10.30;99.90;;;10.66;70.52;99439.94;4958514;28;19962;-84
2024/03/04 01:06:51;;;;;;;;;;;10.30;99.90;;;10.71;70.29;99442.72;4942220;29;19930;-83
2024/03/04 01:09:19;;;;;;;;;;;10.30;99.90;;;10.63;70.52;99441.22;4958853;29;19933;-84
2024/03/04 01:11:46;;;;;;;;;;;10.30;99.90;;;10.65;70.67;99449.81;4958764;29;20384;-84
2024/03/04 01:14:13;;;;;;;;;;;10.30;99.90;;;10.62;70.88;99452.94;4958046;28;20288;-84
2024/03/04 01:16:42;;;;;;;;;;;10.30;99.90;;;10.48;71.63;99467.56;4958045;28;19978;-83
2024/03/04 01:19:09;;;;;;;;;;;10.20;99.90;;;10.56;71.28;99461.88;4940847;29;19930;-84
2024/03/04 01:21:38;;;;;;;;;;;10.20;99.90;;;10.53;71.44;99473.81;4958449;28;19926;-83
2024/03/04 01:24:07;;;;;;;;;;;10.20;99.90;;;10.56;71.24;99475.22;4957661;29;19977;-84
2024/03/04 01:26:34;;;;;;;;;;;10.20;99.90;;;10.58;71.42;99478.44;4958080;28;19926;-84
2024/03/04 01:29:01;;;;;;;;;;;10.30;99.90;;;10.63;70.99;99480.41;4940768;29;19926;-84
2024/03/04 01:31:28;;;;;;;;;;;10.30;99.90;;;10.57;71.35;99490.16;4957906;28;20013;-84
2024/03/04 01:33:56;;;;;;;;;;;10.30;99.90;;;10.59;71.47;99498.75;4941569;29;19927;-84
2024/03/04 01:36:23;;;;;;;;;;;10.30;99.90;;;10.48;71.75;99491.56;4958686;29;20392;-84
2024/03/04 01:38:50;;;;;;;;;;;10.20;99.90;;;10.54;71.71;99491.44;4958335;29;20017;-84
2024/03/04 01:41:23;;;;;;;;;;;10.30;99.90;;;10.58;71.39;99497.91;4959280;29;20388;-84
2024/03/04 01:43:51;;;;;;;;;;;10.30;99.90;;;10.63;70.96;99491.88;4959806;29;19969;-83
2024/03/04 01:46:19;;;;;;;;;;;10.30;99.90;;;10.48;71.84;99499.56;4958676;28;19927;-84
2024/03/04 01:48:46;;;;;;;;;;;10.20;99.90;;;10.36;72.43;99502.25;4958838;29;20379;-83
2024/03/04 01:51:14;;;;;;;;;;;10.20;99.90;;;10.37;72.73;99505.72;4942124;29;19926;-84
2024/03/04 01:53:41;;;;;;;;;;;10.20;99.90;;;10.47;72.21;99511.28;4958969;28;19962;-83
2024/03/04 01:56:09;;;;;;;;;;;10.20;99.90;;;10.56;71.70;99520.53;4942318;29;19927;-84
2024/03/04 01:58:42;;;;;;;;;;;10.20;99.90;;;10.52;72.06;99519.38;4958859;28;19926;-84
2024/03/04 02:01:09;;;;;;;;;;;10.20;99.90;;;10.49;72.16;99528.66;4958943;29;19926;-84
2024/03/04 02:03:37;;;;;;;;;;;10.20;99.90;;;10.46;72.46;99529.13;4940832;29;19966;-84
2024/03/04 02:06:08;;;;;;;;;;;10.20;99.90;;;10.50;72.02;99527.63;4958798;28;20013;-84
2024/03/04 02:08:36;;;;;;;;;;;10.20;99.90;;;10.54;71.95;99533.28;4941285;29;19926;-84
2024/03/04 02:11:05;;;;;;;;;;;10.20;99.90;;;10.57;71.80;99532.81;4959015;29;19958;-83
2024/03/04 02:13:33;;;;;;;;;;;10.30;99.90;;;10.53;72.17;99542.31;4958430;29;19933;-84
2024/03/04 02:16:03;;;;;;;;;;;10.20;99.90;;;10.57;71.93;99535.47;4958983;28;19926;-84
2024/03/04 02:18:34;;;;;;;;;;;10.30;99.90;;;10.53;72.02;99537.00;4939333;29;19928;-83
2024/03/04 02:21:03;;;;;;;;;;;10.20;99.90;;;10.46;71.99;99533.66;4940752;29;20021;-84
2024/03/04 02:23:32;;;;;;;;;;;10.20;99.90;;;10.54;71.87;99541.28;4936946;29;20400;-84
2024/03/04 02:26:00;;;;;;;;;;;10.20;99.90;;;10.56;71.81;99539.19;4936514;29;19927;-84
2024/03/04 02:28:28;;;;;;;;;;;10.30;99.90;;;10.43;72.57;99534.91;4936734;29;19966;-84
2024/03/04 02:30:58;;;;;;;;;;;10.20;99.90;;;10.42;72.47;99545.81;4936696;29;19991;-84
2024/03/04 02:33:26;;;;;;;;;;;10.20;99.90;;;10.38;72.81;99539.31;4937169;29;19926;-84
2024/03/04 02:35:55;;;;;;;;;;;10.20;99.90;;;10.42;72.66;99541.28;4936513;29;19933;-83
2024/03/04 02:38:23;;;;;;;;;;;10.20;99.90;;;10.45;72.40;99551.50;4937109;29;19927;-83
2024/03/04 02:40:53;;;;;;;;;;;10.20;99.90;;;10.49;72.08;99546.50;4905241;29;20001;-84
2024/03/04 02:43:21;;;;;;;;;;;10.20;99.90;;;10.50;72.00;99550.81;4921352;29;20304;-84
2024/03/04 02:45:48;;;;;;;;;;;10.20;99.90;;;10.55;71.68;99554.38;4940013;28;19931;-84
2024/03/04 02:48:19;;;;;;;;;;;10.20;99.90;;;10.55;71.84;99556.25;4955442;29;19927;-84
2024/03/04 02:50:46;;;;;;;;;;;10.30;99.90;;;10.52;71.86;99557.50;4958273;29;19930;-84
2024/03/04 02:53:14;;;;;;;;;;;10.30;99.90;;;10.43;72.22;99563.44;4940583;29;19926;-84
2024/03/04 02:55:42;;;;;;;;;;;10.20;99.90;;;10.46;72.07;99568.31;4956880;28;20307;-84
2024/03/04 02:58:11;;;;;;;;;;;10.20;99.90;;;10.41;72.31;99563.66;4957624;29;19957;-84
2024/03/04 03:00:38;;;;;;;;;;;10.20;99.90;;;10.40;72.39;99567.38;4958405;29;19930;-83
2024/03/04 03:03:06;;;;;;;;;;;10.20;99.90;;;10.33;72.60;99569.34;4924750;29;19933;-84
2024/03/04 03:05:33;;;;;;;;;;;10.10;99.90;;;10.19;72.93;99579.38;4957981;28;19930;-84
2024/03/04 03:08:01;;;;;;;;;;;10.10;99.90;;;10.24;72.84;99578.72;4957687;28;19931;-83
2024/03/04 03:10:31;;;;;;;;;;;10.10;99.90;;;10.32;72.54;99579.19;4958159;29;19952;-84
2024/03/04 03:12:58;;;;;;;;;;;10.10;99.90;;;10.38;72.10;99592.63;4956562;29;19996;-84
2024/03/04 03:15:27;;;;;;;;;;;10.10;99.90;;;10.37;72.13;99597.16;4957585;28;19926;-84
2024/03/04 03:17:54;;;;;;;;;;;10.10;99.90;;;10.42;72.07;99599.94;4957902;29;19989;-84
2024/03/04 03:20:22;;;;;;;;;;;10.10;99.90;;;10.38;71.99;99606.78;4920693;29;19927;-84
2024/03/04 03:22:49;;;;;;;;;;;10.10;99.90;;;10.36;72.17;99610.72;4937935;29;19934;-84
2024/03/04 03:25:17;;;;;;;;;;;10.10;99.90;;;10.38;72.00;99619.28;4941291;29;20413;-83
2024/03/04 03:27:44;;;;;;;;;;;10.10;99.90;;;10.39;71.90;99623.56;4957284;28;19931;-84
2024/03/04 03:30:12;;;;;;;;;;;10.10;99.90;;;10.42;71.76;99623.13;4940211;29;19927;-84
2024/03/04 03:32:41;;;;;;;;;;;10.10;99.90;;;10.41;71.92;99632.16;4957431;29;19926;-84
2024/03/04 03:35:09;;;;;;;;;;;10.10;99.90;;;10.41;71.83;99626.84;4939835;29;19926;-84
2024/03/04 03:37:36;;;;;;;;;;;10.10;99.90;;;10.37;71.79;99639.81;4956529;28;19933;-84
2024/03/04 03:40:04;;;;;;;;;;;10.10;99.90;;;10.42;71.75;99636.44;4943445;29;19926;-84
2024/03/04 03:42:32;;;;;;;;;;;10.10;99.90;;;10.38;71.74;99641.41;4958947;28;19927;-84
2024/03/04 03:45:02;;;;;;;;;;;10.10;99.90;;;10.44;71.66;99643.19;4959338;28;19927;-84
2024/03/04 03:47:30;;;;;;;;;;;10.10;99.90;;;10.48;71.36;99655.00;4943086;29;19927;-84
2024/03/04 03:50:01;;;;;;;;;;;10.20;99.90;;;10.30;71.86;99660.44;4960210;28;20036;-83
2024/03/04 03:52:31;;;;;;;;;;;10.10;99.90;;;10.17;72.39;99658.75;4943742;29;19927;-84
2024/03/04 03:54:58;;;;;;;;;;;10.00;99.90;;;10.16;72.40;99664.31;4961518;29;19930;-83
2024/03/04 03:57:26;;;;;;;;;;;10.00;99.90;;;10.27;72.30;99672.34;4959082;29;19926;-84
2024/03/04 03:59:53;;;;;;;;;;;10.00;99.90;;;10.35;72.02;99673.06;4942947;29;19965;-84
2024/03/04 04:02:21;;;;;;;;;;;10.10;99.90;;;10.39;71.51;99672.34;4943471;29;19942;-84
2024/03/04 04:04:48;;;;;;;;;;;10.10;99.90;;;10.41;71.53;99677.47;4942838;29;19926;-83
2024/03/04 04:07:18;;;;;;;;;;;10.10;99.90;;;10.44;71.36;99682.34;4959365;29;19926;-84
2024/03/04 04:09:45;;;;;;;;;;;10.20;99.90;;;10.40;71.67;99683.84;4958718;28;20459;-84
2024/03/04 04:12:13;;;;;;;;;;;10.10;99.90;;;10.38;71.66;99684.06;4943109;29;19962;-84
2024/03/04 04:14:40;;;;;;;;;;;10.10;99.90;;;10.16;72.47;99690.94;4957955;29;19930;-83
2024/03/04 04:17:08;;;;;;;;;;;10.10;99.90;;;10.25;72.34;99689.63;4942757;29;20021;-83
2024/03/04 04:19:36;;;;;;;;;;;10.00;99.90;;;10.29;71.86;99691.56;4960135;28;19958;-84
2024/03/04 04:22:03;;;;;;;;;;;10.10;99.90;;;10.27;71.92;99692.84;4943068;29;19927;-84
2024/03/04 04:24:32;;;;;;;;;;;10.00;99.90;;;10.17;72.45;99688.06;4960744;28;20289;-83
2024/03/04 04:26:59;;;;;;;;;;;10.00;99.90;;;10.25;72.12;99685.09;4943653;29;20021;-84
2024/03/04 04:29:27;;;;;;;;;;;10.00;99.90;;;10.29;71.90;99694.25;4959902;28;19934;-84
2024/03/04 04:31:55;;;;;;;;;;;10.00;99.90;;;10.32;71.87;99704.44;4941824;29;19937;-84
2024/03/04 04:34:22;;;;;;;;;;;10.00;99.90;;;10.34;71.66;99704.22;4942113;29;20030;-84
2024/03/04 04:36:50;;;;;;;;;;;10.00;99.90;;;10.35;71.56;99702.38;4960029;28;19966;-84
2024/03/04 04:39:18;;;;;;;;;;;10.00;99.90;;;10.35;71.45;99705.06;4943049;29;19927;-85
2024/03/04 04:41:46;;;;;;;;;;;10.10;99.90;;;10.29;71.65;99701.41;4959313;28;19931;-86
2024/03/04 04:44:13;;;;;;;;;;;10.00;99.90;;;10.21;71.86;99705.22;4959082;28;19927;-83
2024/03/04 04:46:41;;;;;;;;;;;9.90;99.90;;;10.18;72.08;99694.19;4941997;29;19962;-84
2024/03/04 04:49:09;;;;;;;;;;;9.90;99.90;;;10.11;72.29;99707.63;4941924;29;19926;-87
2024/03/04 04:51:36;;;;;;;;;;;9.80;99.90;;;10.14;72.12;99707.16;4959952;28;20396;-82
2024/03/04 04:54:03;;;;;;;;;;;9.90;99.90;;;10.14;72.32;99709.81;4958910;29;19993;-82
2024/03/04 04:56:30;;;;;;;;;;;9.80;99.90;;;10.11;72.61;99720.13;4942669;29;20035;-83
2024/03/04 04:58:59;;;;;;;;;;;9.80;99.90;;;10.19;72.07;99723.25;4958556;28;19926;-83
2024/03/04 05:01:27;;;;;;;;;;;9.90;99.90;;;10.21;71.96;99725.72;4943256;29;19958;-82
2024/03/04 05:03:54;;;;;;;;;;;9.90;99.90;;;10.18;72.00;99729.63;4942257;29;20046;-83
2024/03/04 05:06:23;;;;;;;;;;;9.80;99.90;;;10.20;71.91;99729.41;4944740;29;19961;-83
2024/03/04 05:08:52;;;;;;;;;;;9.80;99.90;;;10.23;71.81;99731.63;4948697;29;19934;-84
2024/03/04 05:11:21;;;;;;;;;;;9.90;99.90;;;10.24;71.77;99733.28;4932468;29;20018;-83
2024/03/04 05:13:49;;;;;;;;;;;9.90;99.90;;;10.13;71.93;99734.84;4944575;29;19931;-83
2024/03/04 05:16:19;;;;;;;;;;;9.90;99.90;;;10.15;71.90;99727.44;4943220;29;19927;-85
2024/03/04 05:18:46;;;;;;;;;;;9.80;99.90;;;10.00;72.73;99735.84;4922021;29;20002;-87
2024/03/04 05:21:14;;;;;;;;;;;9.80;99.90;;;10.11;72.24;99744.91;4923184;29;20459;-84
2024/03/04 05:23:41;;;;;;;;;;;9.80;99.90;;;10.15;72.03;99748.75;4927181;29;19979;-85
2024/03/04 05:26:08;;;;;;;;;;;9.90;99.90;;;10.07;72.24;99754.41;4927981;29;19956;-85
2024/03/04 05:28:36;;;;;;;;;;;9.80;99.90;;;10.04;72.51;99755.66;4937025;29;19962;-84
2024/03/04 05:31:07;;;;;;;;;;;9.80;99.90;;;9.95;72.81;99758.84;4946472;29;19926;-86
2024/03/04 05:33:36;;;;;;;;;;;9.70;99.90;;;9.99;72.67;99758.16;4963166;29;20399;-85
2024/03/04 05:36:08;;;;;;;;;;;9.70;99.90;;;10.02;72.49;99756.91;4960847;29;19926;-83
2024/03/04 05:38:35;;;;;;;;;;;9.80;99.90;;;9.95;72.72;99761.50;4958675;29;19997;-82
2024/03/04 05:41:04;;;;;;;;;;;9.70;99.90;;;9.93;72.70;99763.59;4958615;28;19996;-82
2024/03/04 05:43:34;;;;;;;;;;;9.70;99.90;;;9.98;72.67;99769.88;4960299;29;19962;-82
2024/03/04 05:46:01;;;;;;;;;;;9.70;99.90;;;10.02;72.58;99771.06;4960447;29;20319;-82
2024/03/04 05:48:28;;;;;;;;;;;9.80;99.90;;;9.99;72.50;99765.34;4960578;29;20459;-82
2024/03/04 05:50:59;;;;;;;;;;;9.70;99.90;;;9.94;72.81;99765.22;4927766;29;19927;-82
2024/03/04 05:53:26;;;;;;;;;;;9.70;99.90;;;10.00;72.49;99769.63;4960961;28;19926;-82
2024/03/04 05:55:53;;;;;;;;;;;9.80;99.90;;;9.99;72.59;99776.00;4961240;29;19933;-82
2024/03/04 05:58:22;;;;;;;;;;;9.70;99.90;;;10.01;72.60;99768.63;4960968;28;19927;-82
2024/03/04 06:00:49;;;;;;;;;;;9.70;99.90;;;10.02;72.52;99771.06;4960875;28;19926;-82
2024/03/04 06:03:18;;;;;;;;;;;9.70;99.90;;;10.02;72.30;99770.25;4960983;28;19965;-83
2024/03/04 06:05:45;;;;;;;;;;;9.70;99.90;;;10.06;72.37;99777.56;4961478;28;19986;-82
2024/03/04 06:08:16;;;;;;;;;;;9.80;99.90;;;10.07;72.40;99775.72;4943649;29;19936;-83
2024/03/04 06:10:44;;;;;;;;;;;9.70;99.90;;;10.06;72.10;99777.56;4960796;29;19977;-83
2024/03/04 06:13:13;;;;;;;;;;;9.80;99.90;;;9.98;72.58;99782.38;4962167;28;19933;-82
2024/03/04 06:15:41;;;;;;;;;;;9.70;99.90;;;10.01;72.56;99780.09;4961915;29;19926;-83
2024/03/04 06:18:08;;;;;;;;;;;9.70;99.90;;;10.04;72.51;99779.63;4944170;29;19926;-82
2024/03/04 06:20:37;;;;;;;;;;;9.80;99.90;;;10.08;72.26;99782.66;4944866;29;19961;-86
2024/03/04 06:23:05;;;;;;;;;;;9.80;99.90;;;10.12;72.24;99781.19;4959608;29;19977;-83
2024/03/04 06:25:33;;;;;;;;;;;9.80;99.90;;;10.14;72.12;99781.75;4961050;28;19926;-83
2024/03/04 06:28:01;;;;;;;;;;;9.80;99.90;;;10.12;72.15;99785.69;4960242;29;19927;-82
2024/03/04 06:30:29;;;;;;;;;;;9.80;99.90;;;10.11;72.27;99800.88;4943877;29;20305;-82
2024/03/04 06:32:56;;;;;;;;;;;9.80;99.90;;;10.10;72.25;99809.88;4961373;29;19927;-82
2024/03/04 06:35:23;;;;;;;;;;;9.80;99.90;;;10.06;72.50;99806.88;4943390;29;19953;-82
2024/03/04 06:37:51;;;;;;;;;;;9.80;99.90;;;10.12;72.24;99812.34;4961021;28;19934;-82
2024/03/04 06:40:18;;;;;;;;;;;9.80;99.90;;;10.02;72.17;99808.34;4942979;29;19982;-82
2024/03/04 06:42:47;;;;;;;;;;;9.80;99.90;;;9.96;72.92;99809.25;4943412;29;19939;-82
2024/03/04 06:45:15;;;;;;;;;;;9.70;99.90;;;10.01;72.74;99812.06;4943289;29;19926;-82
2024/03/04 06:47:42;;;;;;;;;;;9.80;99.90;;;10.04;72.85;99808.13;4908309;29;19959;-82
2024/03/04 06:50:10;;;;;;;;;;;9.80;99.90;;;10.08;72.59;99817.28;4941964;29;19927;-82
2024/03/04 06:52:37;;;;;;;;;;;9.80;99.90;;;10.12;72.53;99815.81;4939374;29;19930;-82
2024/03/04 06:55:05;;;;;;;;;;;10.00;99.90;;;10.14;72.38;99818.25;4940857;29;20010;-82
2024/03/04 06:57:32;;;;;;;;;;;9.80;99.90;;;10.05;72.94;99817.72;4941085;29;19932;-84
2024/03/04 07:00:03;;;;;;;;;;;9.80;99.90;;;10.03;72.85;99811.81;4940450;29;20411;-82
2024/03/04 07:02:30;;;;;;;;;;;9.70;99.90;;;9.91;73.04;99819.75;4940065;29;19926;-82
2024/03/04 07:04:57;;;;;;;;;;;9.80;99.90;;;9.82;73.62;99834.41;4941696;29;20030;-82
2024/03/04 07:07:25;;;;;;;;;;;9.70;99.90;;;9.87;73.49;99833.75;4939672;29;19931;-82
2024/03/04 07:09:52;;;;;;;;;;;9.60;99.90;;;9.94;73.23;99826.47;4942528;29;20013;-82
2024/03/04 07:12:19;;;;;;;;;;;9.70;99.90;;;9.89;73.33;99835.13;4926000;29;19926;-82
2024/03/04 07:14:46;;;;;;;;;;;9.70;99.90;;;9.92;73.33;99840.03;4928190;29;20030;-82
2024/03/04 07:17:15;;;;;;;;;;;9.70;99.90;;;9.91;73.32;99846.41;4944110;29;20397;-82
2024/03/04 07:19:43;;;;;;;;;;;9.70;99.90;;;9.99;73.16;99839.94;4943737;29;19927;-82
2024/03/04 07:22:12;;;;;;;;;;;9.70;99.90;;;9.99;73.13;99842.59;4943225;29;20018;-82
2024/03/04 07:24:39;;;;;;;;;;;9.70;99.90;;;10.00;73.17;99844.22;4943277;29;19927;-82
2024/03/04 07:27:06;;;;;;;;;;;9.70;99.90;;;9.91;73.20;99842.91;4959344;28;19927;-82
2024/03/04 07:29:33;;;;;;;;;;;9.70;99.90;;;9.87;73.34;99841.72;4944129;29;19934;-82
2024/03/04 07:32:01;;;;;;;;;;;9.70;99.90;;;9.94;73.30;99853.13;4927073;29;19927;-82
2024/03/04 07:34:30;;;;;;;;;;;9.70;99.90;;;9.98;73.47;99844.47;4942675;29;19969;-82
2024/03/04 07:36:58;;;;;;;;;;;9.80;99.90;;;10.00;72.92;99844.22;4943294;29;19994;-82
2024/03/04 07:39:25;;;;;;;;;;;9.80;99.90;;;10.00;73.10;99845.06;4943379;29;19927;-84
2024/03/04 07:41:52;;;;;;;;;;;9.80;99.90;;;10.02;72.84;99842.16;4943112;29;20022;-83
2024/03/04 07:44:20;;;;;;;;;;;9.80;99.90;;;10.05;72.75;99847.03;4943167;29;20382;-83
2024/03/04 07:46:49;;;;;;;;;;;9.80;99.90;;;10.04;72.76;99851.56;4943679;29;20036;-83
2024/03/04 07:49:18;;;;;;;;;;;9.80;99.90;;;10.03;72.78;99846.44;4942997;29;19931;-83
2024/03/04 07:51:46;;;;;;;;;;;9.80;99.90;;;10.02;72.76;99850.16;4942990;29;20013;-83
2024/03/04 07:54:14;;;;;;;;;;;9.70;99.90;;;10.06;72.82;99854.00;4944005;29;20107;-83
2024/03/04 07:56:41;;;;;;;;;;;9.80;99.90;;;10.09;72.70;99850.88;4942580;29;19926;-83
2024/03/04 07:59:08;;;;;;;;;;;9.80;99.90;;;10.10;72.85;99857.84;4943232;29;19926;-83
2024/03/04 08:01:35;;;;;;;;;;;9.80;99.90;;;10.10;72.72;99860.50;4941958;29;20392;-85
2024/03/04 08:04:03;;;;;;;;;;;9.80;99.90;;;10.05;72.91;99857.69;4943704;29;20380;-84
2024/03/04 08:06:32;;;;;;;;;;;9.80;99.90;;;10.00;73.09;99860.22;4943614;29;20385;-83
2024/03/04 08:09:01;;;;;;;;;;;9.80;99.90;;;10.04;72.73;99872.88;4944032;29;20008;-83
2024/03/04 08:11:28;;;;;;;;;;;9.80;99.90;;;10.06;72.80;99862.00;4943591;29;19970;-83
2024/03/04 08:13:56;;;;;;;;;;;9.80;99.90;;;10.10;72.65;99862.34;4942101;29;19998;-83
2024/03/04 08:16:23;;;;;;;;;;;9.80;99.90;;;10.12;72.53;99861.09;4942438;29;19978;-83
2024/03/04 08:18:50;;;;;;;;;;;9.90;99.90;;;10.20;72.49;99862.63;4926064;29;19951;-83
2024/03/04 08:21:18;;;;;;;;;;;9.90;99.90;;;10.23;72.20;99871.00;4942153;29;19927;-83
2024/03/04 08:23:45;;;;;;;;;;;9.90;99.90;;;10.23;72.22;99873.66;4956716;28;20021;-83
2024/03/04 08:26:14;;;;;;;;;;;9.90;99.90;;;10.21;72.30;99880.28;4943496;29;19934;-83
2024/03/04 08:28:45;;;;;;;;;;;10.00;99.90;;;10.23;72.19;99881.66;4927417;29;19926;-83
2024/03/04 08:31:12;;;;;;;;;;;10.00;99.90;;;10.26;72.08;99877.78;4944485;29;19954;-83
2024/03/04 08:33:39;;;;;;;;;;;10.00;99.90;;;10.22;71.97;99882.72;4959026;28;19927;-83
2024/03/04 08:36:07;;;;;;;;;;;10.00;99.90;;;10.20;72.20;99889.28;4929294;29;19973;-83
2024/03/04 08:38:35;;;;;;;;;;;10.00;99.90;;;10.21;72.33;99897.06;4943693;29;19931;-83
2024/03/04 08:41:03;;;;;;;;;;;10.00;99.90;;;10.19;71.92;99901.00;4942880;29;20435;-83
2024/03/04 08:43:32;;;;;;;;;;;9.90;99.90;;;10.14;72.20;99901.66;4943960;29;19926;-83
2024/03/04 08:46:00;;;;;;;;;;;9.90;99.90;;;10.17;72.01;99903.06;4949904;29;19927;-83
2024/03/04 08:48:27;;;;;;;;;;;9.90;99.90;;;10.14;72.14;99904.31;4929469;29;19958;-83
2024/03/04 08:50:54;;;;;;;;;;;9.90;99.90;;;10.19;71.91;99903.66;4946166;29;19964;-83
2024/03/04 08:53:21;;;;;;;;;;;9.90;99.90;;;10.22;71.68;99906.69;4945313;29;19930;-83
2024/03/04 08:55:50;;;;;;;;;;;9.90;99.90;;;10.20;71.68;99906.13;4945880;29;20009;-83
2024/03/04 08:58:18;;;;;;;;;;;10.00;99.90;;;10.17;71.58;99895.88;4963696;29;19926;-83
2024/03/04 09:00:47;;;;;;;;;;;9.90;99.90;;;10.20;71.53;99905.28;4947443;29;20293;-83
2024/03/04 09:03:14;;;;;;;;;;;9.90;99.90;;;10.22;71.53;99896.03;4945758;29;19926;-83
2024/03/04 09:05:44;;;;;;;;;;;9.90;99.90;;;10.24;71.32;99898.50;4945532;29;19927;-83
2024/03/04 09:08:12;;;;;;;;;;;10.00;99.90;;;10.23;71.16;99900.31;4962814;29;19970;-83
2024/03/04 09:10:40;;;;;;;;;;;10.00;99.90;;;10.18;71.22;99902.03;4945394;29;19926;-83
2024/03/04 09:13:07;;;;;;;;;;;9.90;99.90;;;10.21;71.20;99901.59;4945039;29;19931;-83
2024/03/04 09:15:35;;;;;;;;;;;10.00;99.90;;;10.23;71.08;99903.00;4913240;29;20094;-83
2024/03/04 09:18:05;;;;;;;;;;;10.00;99.90;;;10.25;71.06;99903.63;4960947;28;19958;-83
2024/03/04 09:20:32;;;;;;;;;;;10.00;99.90;;;10.27;71.00;99904.22;4961859;28;19950;-83
2024/03/04 09:23:00;;;;;;;;;;;10.00;99.90;;;10.30;71.04;99906.44;4962021;28;19978;-83
2024/03/04 09:25:27;;;;;;;;;;;10.00;99.90;;;10.31;71.04;99897.41;4960928;28;19969;-83
2024/03/04 09:27:54;;;;;;;;;;;10.10;99.90;;;10.32;71.16;99904.34;4944458;29;19981;-83
2024/03/04 09:30:23;;;;;;;;;;;10.10;99.90;;;10.34;70.98;99904.13;4962017;29;19934;-83
2024/03/04 09:32:50;;;;;;;;;;;10.10;99.90;;;10.31;70.99;99910.72;4961804;28;19957;-83
2024/03/04 09:35:18;;;;;;;;;;;10.00;99.90;;;10.29;71.01;99906.63;4962077;28;19930;-83
2024/03/04 09:37:46;;;;;;;;;;;10.00;99.90;;;10.27;71.13;99898.06;4961508;28;19977;-83
2024/03/04 09:40:13;;;;;;;;;;;10.00;99.90;;;10.13;71.17;99900.03;4944439;29;20391;-83
2024/03/04 09:42:47;;;;;;;;;;;10.00;99.90;;;10.15;71.51;99899.81;4960516;29;20396;-82
2024/03/04 09:45:14;;;;;;;;;;;10.00;99.90;;;10.15;71.21;99903.31;4945157;29;19927;-83
2024/03/04 09:47:44;;;;;;;;;;;10.00;99.90;;;10.22;71.35;99903.22;4942631;29;19926;-82
2024/03/04 09:50:12;;;;;;;;;;;10.10;99.90;;;10.25;71.13;99898.28;4943133;29;19927;-82
2024/03/04 09:52:42;;;;;;;;;;;10.00;99.90;;;10.29;70.97;99914.63;4941468;29;19982;-81
2024/03/04 09:55:10;;;;;;;;;;;10.10;99.90;;;10.32;71.07;99909.69;4942695;29;19927;-81
2024/03/04 09:57:38;;;;;;;;;;;10.10;99.90;;;10.36;71.09;99911.91;4942600;29;19930;-81
2024/03/04 10:00:08;;;;;;;;;;;10.10;99.90;;;10.35;71.08;99920.94;4942380;29;19950;-81
2024/03/04 10:02:39;;;;;;;;;;;10.10;99.90;;;10.32;70.93;99920.34;4956826;29;19927;-84
2024/03/04 10:05:07;;;;;;;;;;;10.10;99.90;;;10.34;70.88;99912.13;4941009;29;20432;-81
2024/03/04 10:07:36;;;;;;;;;;;10.10;99.90;;;10.34;70.89;99922.78;4941291;29;19941;-81
2024/03/04 10:10:05;;;;;;;;;;;10.10;99.90;;;10.36;70.95;99919.91;4925565;29;19973;-81
2024/03/04 10:12:33;;;;;;;;;;;10.10;99.90;;;10.35;70.87;99926.28;4940215;29;20014;-81
2024/03/04 10:15:09;;;;;;;;;;;10.10;99.90;;;10.30;71.10;99929.63;4940886;29;19927;-81
2024/03/04 10:17:38;;;;;;;;;;;10.00;99.90;;;10.30;70.52;99930.41;4941289;29;19927;-82
2024/03/04 10:20:07;;;;;;;;;;;10.00;99.90;;;10.30;70.86;99930.41;4940323;29;19969;-81
2024/03/04 10:22:35;;;;;;;;;;;10.10;99.90;;;10.28;70.78;99943.13;4941887;29;19927;-81
2024/03/04 10:25:05;;;;;;;;;;;10.00;99.90;;;10.29;71.02;99949.28;4924723;29;20013;-81
2024/03/04 10:27:33;;;;;;;;;;;10.00;99.90;;;10.30;70.87;99954.41;4941141;29;19989;-81
2024/03/04 10:30:11;;;;;;;;;;;10.00;99.90;;;10.26;71.08;99955.88;4941806;29;20320;-81
2024/03/04 10:32:39;;;;;;;;;;;10.00;99.90;;;10.27;71.17;99954.84;4943000;29;19951;-81
2024/03/04 10:35:08;;;;;;;;;;;10.00;99.90;;;10.26;71.16;99953.22;4941800;29;19927;-83
2024/03/04 10:37:35;;;;;;;;;;;10.00;99.90;;;10.28;71.05;99945.81;4942567;29;19950;-81
2024/03/04 10:40:05;;;;;;;;;;;10.00;99.90;;;10.30;71.02;99946.41;4940479;29;19959;-81
2024/03/04 10:42:32;;;;;;;;;;;10.10;99.90;;;10.29;71.02;99949.28;4941356;29;19949;-81
2024/03/04 10:45:00;;;;;;;;;;;10.00;99.90;;;10.28;70.91;99948.47;4940534;29;19966;-81
2024/03/04 10:47:28;;;;;;;;;;;10.00;99.90;;;10.25;71.13;99951.59;4923562;29;19931;-82
2024/03/04 10:49:56;;;;;;;;;;;10.00;99.90;;;10.26;71.09;99952.41;4942299;29;19933;-80
2024/03/04 10:52:23;;;;;;;;;;;10.00;99.90;;;10.18;71.35;99956.13;4923906;29;19931;-80
2024/03/04 10:54:51;;;;;;;;;;;9.90;99.90;;;10.20;71.44;99961.22;4940805;29;19927;-80
2024/03/04 10:57:27;;;;;;;;;;;10.00;99.90;;;10.20;71.39;99959.41;4941192;29;19935;-80
2024/03/04 10:59:56;;;;;;;;;;;10.00;99.90;;;10.21;71.52;99957.56;4941094;29;19934;-80
2024/03/04 11:02:32;;;;;;;;;;;9.90;99.90;;;10.23;71.31;99966.94;4941775;29;19934;-80
2024/03/04 11:05:01;;;;;;;;;;;10.00;99.90;;;10.21;71.43;99963.69;4942057;29;19927;-80
2024/03/04 11:07:31;;;;;;;;;;;10.00;99.90;;;10.14;71.91;99962.13;4940477;29;19931;-81
2024/03/04 11:10:06;;;;;;;;;;;9.90;99.90;;;10.13;72.14;99963.16;4941395;29;19930;-81
2024/03/04 11:12:36;;;;;;;;;;;10.00;99.90;;;9.96;72.87;99969.06;4941693;29;19991;-81
2024/03/04 11:15:09;;;;;;;;;;;9.80;99.90;;;10.04;72.83;99970.63;4940597;29;19927;-85
2024/03/04 11:17:42;;;;;;;;;;;9.90;99.90;;;10.05;72.83;99970.44;4940258;29;19927;-84
2024/03/04 11:20:10;;;;;;;;;;;9.90;99.90;;;10.06;72.67;99969.38;4940547;29;19954;-86
2024/03/04 11:22:38;;;;;;;;;;;9.90;99.90;;;10.11;72.53;99968.72;4940288;29;20360;-84
2024/03/04 11:25:08;;;;;;;;;;;9.90;99.90;;;10.16;72.45;99973.41;4939853;29;19927;-83